createdAt,value
2022-12-13T00:01:47.590Z,94266.88
2022-12-13T00:04:15.812Z,94262.03
2022-12-13T00:06:44.447Z,94246.81
2022-12-13T00:09:14.257Z,94248.78
2022-12-13T00:11:42.048Z,94241.00
2022-12-13T00:14:09.824Z,94248.78
2022-12-13T00:16:38.932Z,94237.59
2022-12-13T00:19:06.911Z,94240.03
2022-12-13T00:21:35.477Z,94223.56
2022-12-13T00:24:03.783Z,94224.34
2022-12-13T00:26:33.268Z,94218.34
2022-12-13T00:29:01.711Z,94225.97
2022-12-13T00:34:21.248Z,94207.53
2022-12-13T00:36:49.733Z,94191.88
2022-12-13T00:39:19.202Z,94180.69
2022-12-13T00:41:48.224Z,94177.91
2022-12-13T00:44:16.042Z,94161.06
2022-12-13T00:46:43.834Z,94156.22
2022-12-13T00:49:13.318Z,94149.44
2022-12-13T00:51:42.693Z,94111.75
2022-12-13T00:54:15.131Z,94093.69
2022-12-13T00:56:43.129Z,94077.03
2022-12-13T00:59:14.873Z,94091.09
2022-12-13T01:01:42.785Z,94062.19
2022-12-13T01:04:12.040Z,94057.38
2022-12-13T01:06:42.742Z,94058.06
2022-12-13T01:09:17.164Z,94029.66
2022-12-13T01:11:45.904Z,94017.22
2022-12-13T01:14:13.719Z,93986.84
2022-12-13T01:16:41.698Z,94009.63
2022-12-13T01:19:10.956Z,93973.59
2022-12-13T01:21:39.043Z,93964.22
2022-12-13T01:24:09.146Z,93953.91
2022-12-13T01:26:36.949Z,93978.78
2022-12-13T01:29:06.131Z,93959.22
2022-12-13T01:31:34.093Z,93943.56
2022-12-13T01:34:10.654Z,93935.16
2022-12-13T01:36:39.824Z,93923.19
2022-12-13T01:39:14.808Z,93927.38
2022-12-13T01:41:44.633Z,93919.97
2022-12-13T01:44:45.507Z,93905.13
2022-12-13T01:47:15.482Z,93902.38
2022-12-13T01:49:43.505Z,93897.19
2022-12-13T01:52:14.860Z,93895.56
2022-12-13T01:54:50.456Z,93885.56
2022-12-13T01:57:21.069Z,93884.78
2022-12-13T01:59:51.366Z,93888.34
2022-12-13T02:02:21.071Z,93877.00
2022-12-13T02:04:55.815Z,93882.19
2022-12-13T02:07:31.560Z,93869.75
2022-12-13T02:10:05.155Z,93867.72
2022-12-13T02:12:35.766Z,93867.78
2022-12-13T02:15:07.885Z,93862.88
2022-12-13T02:17:48.743Z,93866.38
2022-12-13T02:20:53.206Z,93885.56
2022-12-13T02:23:39.643Z,93883.53
2022-12-13T02:26:23.660Z,93882.34
2022-12-13T02:29:07.272Z,93879.59
2022-12-13T02:31:46.358Z,93868.97
2022-12-13T02:34:22.739Z,93867.19
2022-12-13T02:37:00.448Z,93874.31
2022-12-13T02:39:33.985Z,93847.94
2022-12-13T02:42:05.883Z,93788.38
2022-12-13T02:44:38.547Z,93732.22
2022-12-13T02:47:22.101Z,93684.50
2022-12-13T02:49:53.806Z,93645.34
2022-12-13T02:52:26.806Z,93607.78
2022-12-13T02:54:55.782Z,93580.84
2022-12-13T02:57:32.156Z,93539.81
2022-12-13T03:00:03.204Z,93532.72
2022-12-13T03:02:55.296Z,93513.16
2022-12-13T03:06:04.271Z,93485.81
2022-12-13T03:08:40.664Z,93471.66
2022-12-13T03:11:12.304Z,93440.56
2022-12-13T03:13:49.338Z,93436.56
2022-12-13T03:16:32.521Z,93413.00
2022-12-13T03:19:04.936Z,93395.66
2022-12-13T03:21:45.557Z,93343.06
2022-12-13T03:24:18.076Z,93282.06
2022-12-13T03:26:46.511Z,93293.00
2022-12-13T03:29:14.515Z,93270.31
2022-12-13T03:31:52.718Z,93252.97
2022-12-13T03:34:22.527Z,93228.06
2022-12-13T03:36:50.976Z,93228.06
2022-12-13T03:39:21.318Z,93200.38
2022-12-13T03:41:50.485Z,93202.34
2022-12-13T03:44:18.840Z,93197.97
2022-12-13T03:46:46.688Z,93189.44
2022-12-13T03:49:17.403Z,93182.66
2022-12-13T03:51:46.963Z,93156.97
2022-12-13T03:54:14.914Z,93164.72
2022-12-13T03:56:42.989Z,93163.75
2022-12-13T03:59:10.795Z,93157.78
2022-12-13T04:01:39.142Z,93152.81
2022-12-13T04:04:06.976Z,93132.88
2022-12-13T04:06:35.387Z,93122.75
2022-12-13T04:09:05.399Z,93093.44
2022-12-13T04:11:50.696Z,93111.00
2022-12-13T04:14:22.661Z,93089.44
2022-12-13T04:16:51.496Z,93101.44
2022-12-13T04:19:23.239Z,93097.88
2022-12-13T04:21:52.331Z,93101.06
2022-12-13T04:24:21.876Z,93082.31
2022-12-13T04:27:00.765Z,93071.38
2022-12-13T04:29:34.119Z,93071.19
2022-12-13T04:32:05.150Z,93065.41
2022-12-13T04:34:52.898Z,93044.53
2022-12-13T04:37:29.108Z,93042.75
2022-12-13T04:40:00.904Z,93030.41
2022-12-13T04:42:28.997Z,93032.78
2022-12-13T04:44:56.734Z,93038.56
2022-12-13T04:47:24.528Z,93019.47
2022-12-13T04:49:52.462Z,93009.72
2022-12-13T04:52:24.058Z,92988.81
2022-12-13T04:54:55.961Z,92974.50
2022-12-13T04:57:25.484Z,92971.31
2022-12-13T04:59:54.078Z,92969.72
2022-12-13T05:02:24.352Z,92957.78
2022-12-13T05:04:53.544Z,92959.75
2022-12-13T05:07:22.776Z,92951.41
2022-12-13T05:09:50.576Z,92936.69
2022-12-13T05:12:22.462Z,92938.50
2022-12-13T05:14:54.042Z,92943.69
2022-12-13T05:17:22.464Z,92937.91
2022-12-13T05:19:50.398Z,92931.34
2022-12-13T05:22:20.770Z,92936.31
2022-12-13T05:24:49.545Z,92924.78
2022-12-13T05:27:24.527Z,92907.91
2022-12-13T05:30:05.067Z,92914.84
2022-12-13T05:32:43.448Z,92909.69
2022-12-13T05:35:14.450Z,92913.66
2022-12-13T05:37:54.842Z,92908.09
2022-12-13T05:40:23.927Z,92879.84
2022-12-13T05:42:51.689Z,92891.59
2022-12-13T05:45:31.091Z,92884.66
2022-12-13T05:47:59.069Z,92846.00
2022-12-13T05:50:28.480Z,92862.34
2022-12-13T05:52:56.338Z,92864.75
2022-12-13T05:55:24.243Z,92849.66
2022-12-13T05:57:52.000Z,92858.38
2022-12-13T06:00:28.555Z,92839.09
2022-12-13T06:03:01.599Z,92814.09
2022-12-13T06:05:30.288Z,92823.22
2022-12-13T06:07:58.740Z,92789.25
2022-12-13T06:10:34.591Z,92780.13
2022-12-13T06:13:20.946Z,92769.00
2022-12-13T06:15:51.662Z,92746.53
2022-12-13T06:18:23.099Z,92743.97
2022-12-13T06:20:58.538Z,92762.44
2022-12-13T06:23:26.817Z,92750.69
2022-12-13T06:25:54.914Z,92751.50
2022-12-13T06:28:22.635Z,92740.00
2022-12-13T06:30:52.527Z,92750.91
2022-12-13T06:33:23.480Z,92751.88
2022-12-13T06:35:52.616Z,92755.69
2022-12-13T06:38:31.097Z,92726.44
2022-12-13T06:41:09.210Z,92743.16
2022-12-13T06:43:38.924Z,92740.59
2022-12-13T06:46:07.027Z,92739.19
2022-12-13T06:48:40.557Z,92746.53
2022-12-13T06:51:09.819Z,92743.16
2022-12-13T06:53:39.017Z,92755.88
2022-12-13T06:56:08.575Z,92740.00
2022-12-13T06:58:36.968Z,92752.50
2022-12-13T07:01:06.769Z,92742.38
2022-12-13T07:03:46.827Z,92740.00
2022-12-13T07:06:18.222Z,92731.66
2022-12-13T07:08:53.512Z,92728.47
2022-12-13T07:11:26.889Z,92721.72
2022-12-13T07:13:55.543Z,92725.69
2022-12-13T07:16:25.959Z,92719.16
2022-12-13T07:19:01.157Z,92744.16
2022-12-13T07:21:31.253Z,92747.53
2022-12-13T07:24:01.293Z,92753.47
2022-12-13T07:26:29.040Z,92757.66
2022-12-13T07:28:57.449Z,92766.59
2022-12-13T07:31:26.733Z,92755.47
2022-12-13T07:33:56.241Z,92749.91
2022-12-13T07:36:25.152Z,92756.66
2022-12-13T07:38:55.256Z,92769.81
2022-12-13T07:41:23.522Z,92764.66
2022-12-13T07:43:55.845Z,92793.22
2022-12-13T07:46:33.338Z,92811.50
2022-12-13T07:49:04.858Z,92790.66
2022-12-13T07:51:34.489Z,92802.56
2022-12-13T07:54:06.931Z,92787.47
2022-12-13T07:56:35.718Z,92791.63
2022-12-13T07:59:03.829Z,92786.47
2022-12-13T08:01:34.566Z,92781.31
2022-12-13T08:04:05.153Z,92779.31
2022-12-13T08:06:36.276Z,92788.06
2022-12-13T08:09:06.327Z,92798.00
2022-12-13T08:11:35.850Z,92788.06
2022-12-13T08:14:03.919Z,92784.91
2022-12-13T08:16:32.346Z,92800.78
2022-12-13T08:19:04.392Z,92814.69
2022-12-13T08:21:56.640Z,92802.97
2022-12-13T08:24:28.996Z,92846.47
2022-12-13T08:27:03.622Z,92837.75
2022-12-13T08:29:34.604Z,92856.41
2022-12-13T08:32:04.564Z,92852.84
2022-12-13T08:34:32.705Z,92860.38
2022-12-13T08:37:03.916Z,92872.72
2022-12-13T08:39:34.014Z,92877.91
2022-12-13T08:42:14.761Z,92880.47
2022-12-13T08:44:44.155Z,92895.38
2022-12-13T08:47:11.977Z,92909.31
2022-12-13T08:49:41.158Z,92917.84
2022-12-13T08:52:10.554Z,92957.78
2022-12-13T08:54:38.254Z,92962.16
2022-12-13T08:57:06.083Z,92978.50
2022-12-13T08:59:34.088Z,92961.97
2022-12-13T09:02:05.155Z,92954.59
2022-12-13T09:04:33.739Z,92964.53
2022-12-13T09:07:02.089Z,92967.72
2022-12-13T09:09:32.228Z,92954.59
2022-12-13T09:12:01.685Z,92926.38
2022-12-13T09:14:45.353Z,92918.63
2022-12-13T09:17:24.041Z,92899.56
2022-12-13T09:19:58.339Z,92866.34
2022-12-13T09:22:33.959Z,92874.69
2022-12-13T09:25:04.208Z,92876.31
2022-12-13T09:27:39.526Z,92911.28
2022-12-13T09:30:12.224Z,92896.78
2022-12-13T09:32:41.989Z,92893.78
2022-12-13T09:35:10.525Z,92858.34
2022-12-13T09:37:45.595Z,92898.56
2022-12-13T09:40:25.731Z,92901.94
2022-12-13T09:43:12.293Z,92896.19
2022-12-13T09:45:46.755Z,92891.03
2022-12-13T09:48:22.439Z,92919.25
2022-12-13T09:51:16.611Z,92910.09
2022-12-13T09:53:41.895Z,92925.19
2022-12-13T09:56:13.648Z,92906.72
2022-12-13T09:58:43.470Z,92919.25
2022-12-13T10:01:13.455Z,92890.41
2022-12-13T10:03:54.101Z,92909.31
2022-12-13T10:06:24.472Z,92941.09
2022-12-13T10:08:57.695Z,92938.72
2022-12-13T10:11:32.037Z,92937.91
2022-12-13T10:14:05.397Z,92919.63
2022-12-13T10:16:43.757Z,92897.78
2022-12-13T10:19:29.567Z,92899.38
2022-12-13T10:22:01.055Z,92878.69
2022-12-13T10:24:48.485Z,92881.47
2022-12-13T10:27:19.918Z,92902.13
2022-12-13T10:30:00.104Z,92893.00
2022-12-13T10:32:28.452Z,92907.72
2022-12-13T10:34:56.459Z,92920.41
2022-12-13T10:37:31.944Z,92950.25
2022-12-13T10:40:02.487Z,92927.16
2022-12-13T10:42:34.030Z,92927.59
2022-12-13T10:45:23.603Z,92929.56
2022-12-13T10:47:52.336Z,92901.94
2022-12-13T10:50:27.730Z,92914.47
2022-12-13T10:52:57.588Z,92933.53
2022-12-13T10:55:29.756Z,92918.63
2022-12-13T10:58:02.127Z,92951.03
2022-12-13T11:00:37.958Z,92947.06
2022-12-13T11:03:07.017Z,92934.34
2022-12-13T11:05:37.771Z,92954.22
2022-12-13T11:08:17.529Z,92949.63
2022-12-13T11:10:45.768Z,92906.13
2022-12-13T11:13:38.893Z,92877.09
2022-12-13T11:16:22.422Z,92858.78
2022-12-13T11:18:53.662Z,92841.91
2022-12-13T11:21:26.497Z,92815.47
2022-12-13T11:23:55.789Z,92827.00
2022-12-13T11:26:26.731Z,92805.56
2022-12-13T11:29:14.539Z,92781.31
2022-12-13T11:31:52.038Z,92801.19
2022-12-13T11:34:31.057Z,92792.84
2022-12-13T11:37:10.317Z,92855.41
2022-12-13T11:39:43.100Z,92869.53
2022-12-13T11:42:20.659Z,92884.25
2022-12-13T11:45:01.312Z,92857.63
2022-12-13T11:47:39.770Z,92832.34
2022-12-13T11:50:32.973Z,92849.66
2022-12-13T11:53:26.580Z,92866.00
2022-12-13T11:56:00.848Z,92896.19
2022-12-13T12:01:31.214Z,92875.72
2022-12-13T12:04:05.643Z,92862.78
2022-12-13T12:06:40.613Z,92834.56
2022-12-13T12:09:16.262Z,92835.34
2022-12-13T12:11:49.828Z,92782.31
2022-12-13T12:14:24.334Z,92742.38
2022-12-13T12:16:55.311Z,92697.50
2022-12-13T12:19:26.279Z,92676.06
2022-12-13T12:22:15.879Z,92623.28
2022-12-13T12:24:58.440Z,92584.41
2022-12-13T12:27:35.432Z,92561.19
2022-12-13T12:30:11.208Z,92530.44
2022-12-13T12:32:48.901Z,92476.50
2022-12-13T12:35:27.856Z,92453.34
2022-12-13T12:38:09.619Z,92442.44
2022-12-13T12:41:15.781Z,92412.69
2022-12-13T12:43:42.087Z,92402.00
2022-12-13T12:46:27.925Z,92357.44
2022-12-13T12:49:25.770Z,92354.84
2022-12-13T12:52:03.079Z,92306.53
2022-12-13T12:54:45.002Z,92270.88
2022-12-13T12:57:23.101Z,92278.41
2022-12-13T13:00:03.842Z,92217.81
2022-12-13T13:02:38.767Z,92177.47
2022-12-13T13:05:16.446Z,92184.00
2022-12-13T13:07:51.358Z,92153.53
2022-12-13T13:10:25.955Z,92126.00
2022-12-13T13:13:12.433Z,92101.47
2022-12-13T13:15:58.062Z,92077.75
2022-12-13T13:18:47.814Z,92068.88
2022-12-13T13:21:43.912Z,92048.09
2022-12-13T13:24:17.291Z,92017.66
2022-12-13T13:26:49.073Z,91986.63
2022-12-13T13:29:26.736Z,91978.13
2022-12-13T13:32:01.403Z,91931.50
2022-12-13T13:34:31.532Z,91880.94
2022-12-13T13:37:01.882Z,91872.03
2022-12-13T13:39:55.799Z,91850.53
2022-12-13T13:42:26.169Z,91805.09
2022-12-13T13:44:57.345Z,91790.31
2022-12-13T13:47:43.024Z,91759.75
2022-12-13T13:50:58.703Z,91750.69
2022-12-13T13:53:57.559Z,91721.09
2022-12-13T13:56:44.882Z,91693.84
2022-12-13T13:59:47.625Z,91683.19
2022-12-13T14:02:57.050Z,91691.47
2022-12-13T14:05:58.099Z,91659.34
2022-12-13T14:08:42.014Z,91628.78
2022-12-13T14:11:50.668Z,91565.28
2022-12-13T14:15:01.434Z,91514.47
2022-12-13T14:18:07.770Z,91559.38
2022-12-13T14:21:00.406Z,91509.34
2022-12-13T14:23:44.401Z,91510.53
2022-12-13T14:26:26.509Z,91483.31
2022-12-13T14:28:57.077Z,91454.94
2022-12-13T14:31:27.496Z,91448.66
2022-12-13T14:33:59.194Z,91424.84
2022-12-13T14:36:29.814Z,91417.56
2022-12-13T14:39:03.384Z,91412.44
2022-12-13T14:41:31.288Z,91434.69
2022-12-13T14:44:17.372Z,91415.00
2022-12-13T14:46:53.252Z,91421.50
2022-12-13T14:49:23.099Z,91356.19
2022-12-13T14:52:00.306Z,91430.97
2022-12-13T14:54:33.486Z,91407.91
2022-12-13T14:57:04.581Z,91423.84
2022-12-13T14:59:33.645Z,91415.59
2022-12-13T15:02:03.777Z,91402.41
2022-12-13T15:04:34.220Z,91394.34
2022-12-13T15:07:07.647Z,91349.25
2022-12-13T15:09:40.872Z,91344.72
2022-12-13T15:12:23.761Z,91352.97
2022-12-13T15:14:59.731Z,91362.22
2022-12-13T15:17:30.816Z,91347.13
2022-12-13T15:20:01.186Z,91349.03
2022-12-13T15:22:30.058Z,91329.16
2022-12-13T15:24:59.998Z,91306.53
2022-12-13T15:27:28.391Z,91324.06
2022-12-13T15:29:56.982Z,91311.66
2022-12-13T15:32:25.176Z,91288.06
2022-12-13T15:34:53.376Z,91314.78
2022-12-13T15:37:29.790Z,91302.81
2022-12-13T15:40:02.643Z,91288.84
2022-12-13T15:42:33.766Z,91304.97
2022-12-13T15:45:06.177Z,91280.56
2022-12-13T15:47:34.634Z,91281.75
2022-12-13T15:50:06.099Z,91299.66
2022-12-13T15:52:37.663Z,91280.56
2022-12-13T15:55:33.304Z,91251.06
2022-12-13T15:58:01.999Z,91249.09
2022-12-13T16:00:32.752Z,91249.91
2022-12-13T16:03:12.306Z,91259.50
2022-12-13T16:05:47.378Z,91280.19
2022-12-13T16:08:26.334Z,91304.38
2022-12-13T16:10:58.621Z,91265.59
2022-12-13T16:13:29.011Z,91269.72
2022-12-13T16:16:09.199Z,91210.34
2022-12-13T16:18:45.672Z,91183.06
2022-12-13T16:21:15.231Z,91212.91
2022-12-13T16:23:48.622Z,91203.88
2022-12-13T16:26:23.640Z,91211.13
2022-12-13T16:28:51.666Z,91203.09
2022-12-13T16:31:24.175Z,91236.13
2022-12-13T16:33:52.574Z,91219.59
2022-12-13T16:36:21.943Z,91212.31
2022-12-13T16:38:49.968Z,91201.09
2022-12-13T16:41:20.158Z,91179.13
2022-12-13T16:43:58.106Z,91164.34
2022-12-13T16:47:14.280Z,91132.34
2022-12-13T16:49:30.051Z,91111.13
2022-12-13T16:51:58.590Z,91132.38
2022-12-13T16:54:27.372Z,91136.47
2022-12-13T16:56:57.104Z,91152.97
2022-12-13T16:59:27.017Z,91140.59
2022-12-13T17:01:55.893Z,91140.59
2022-12-13T17:04:25.691Z,91126.44
2022-12-13T17:06:55.090Z,91109.56
2022-12-13T17:09:25.325Z,91088.94
2022-12-13T17:11:53.843Z,91104.44
2022-12-13T17:14:25.992Z,91073.38
2022-12-13T17:16:55.014Z,91058.44
2022-12-13T17:19:22.962Z,91086.94
2022-12-13T17:21:50.773Z,91073.00
2022-12-13T17:24:19.712Z,91052.56
2022-12-13T17:26:54.676Z,91008.97
2022-12-13T17:29:25.899Z,91013.09
2022-12-13T17:31:54.267Z,91015.63
2022-12-13T17:34:22.521Z,91032.13
2022-12-13T17:36:50.861Z,91024.09
2022-12-13T17:39:19.012Z,90997.56
2022-12-13T17:41:54.624Z,90949.66
2022-12-13T17:44:26.004Z,90965.38
2022-12-13T17:46:55.155Z,90958.72
2022-12-13T17:49:23.794Z,91001.69
2022-12-13T17:51:53.738Z,91026.25
2022-12-13T17:54:22.005Z,91002.50
2022-12-13T17:56:50.995Z,91032.50
2022-12-13T17:59:19.389Z,91018.78
2022-12-13T18:01:49.623Z,91004.84
2022-12-13T18:04:20.233Z,90989.34
2022-12-13T18:06:48.040Z,90979.09
2022-12-13T18:09:16.553Z,91006.59
2022-12-13T18:11:44.595Z,90992.47
2022-12-13T18:14:12.411Z,90994.44
2022-12-13T18:16:40.885Z,90926.91
2022-12-13T18:19:13.109Z,90869.22
2022-12-13T18:21:43.425Z,90899.81
2022-12-13T18:24:11.559Z,90909.25
2022-12-13T18:26:39.310Z,90935.13
2022-12-13T18:29:07.132Z,90962.22
2022-12-13T18:31:35.333Z,90935.72
2022-12-13T18:34:03.236Z,90944.53
2022-12-13T18:36:32.371Z,90921.78
2022-12-13T18:39:01.929Z,90877.44
2022-12-13T18:41:32.265Z,90879.22
2022-12-13T18:44:01.796Z,90859.41
2022-12-13T18:46:30.834Z,90963.03
2022-12-13T18:48:59.427Z,90940.63
2022-12-13T18:51:28.314Z,91014.44
2022-12-13T18:53:57.524Z,91026.25
2022-12-13T18:56:25.986Z,91009.75
2022-12-13T18:58:54.589Z,90948.91
2022-12-13T19:01:26.808Z,90919.03
2022-12-13T19:03:55.156Z,90884.91
2022-12-13T19:06:26.244Z,90853.69
2022-12-13T19:08:58.764Z,90842.13
2022-12-13T19:11:28.558Z,90785.44
2022-12-13T19:13:56.849Z,90731.53
2022-12-13T19:16:26.329Z,90703.72
2022-12-13T19:18:54.811Z,90669.25
2022-12-13T19:21:23.242Z,90653.59
2022-12-13T19:23:56.988Z,90628.50
2022-12-13T19:26:28.348Z,90616.75
2022-12-13T19:28:57.500Z,90600.72
2022-12-13T19:31:30.956Z,90622.63
2022-12-13T19:34:01.728Z,90725.66
2022-12-13T19:36:30.044Z,90764.66
2022-12-13T19:38:57.901Z,90838.78
2022-12-13T19:41:27.557Z,90857.06
2022-12-13T19:43:55.828Z,90885.69
2022-12-13T19:46:27.078Z,90871.75
2022-12-13T19:48:54.908Z,90841.34
2022-12-13T19:51:22.922Z,90851.13
2022-12-13T19:53:51.158Z,90865.66
2022-12-13T19:56:20.935Z,90878.22
2022-12-13T19:58:57.994Z,90893.94
2022-12-13T20:01:25.928Z,90870.78
2022-12-13T20:03:54.570Z,90880.56
2022-12-13T20:06:25.123Z,90873.56
2022-12-13T20:08:53.354Z,90883.91
2022-12-13T20:11:23.425Z,90846.03
2022-12-13T20:13:56.148Z,90824.28
2022-12-13T20:16:26.833Z,90831.53
2022-12-13T20:18:58.135Z,90829.97
2022-12-13T20:21:27.758Z,90825.84
2022-12-13T20:23:56.565Z,90800.16
2022-12-13T20:26:27.701Z,90821.72
2022-12-13T20:28:57.199Z,90842.91
2022-12-13T20:31:26.303Z,90891.38
2022-12-13T20:33:57.263Z,90914.53
2022-12-13T20:36:27.709Z,90847.22
2022-12-13T20:38:57.053Z,90822.50
2022-12-13T20:41:27.614Z,90804.25
2022-12-13T20:43:58.894Z,90857.41
2022-12-13T20:46:29.359Z,90819.16
2022-12-13T20:48:59.282Z,90802.13
2022-12-13T20:51:29.208Z,90793.47
2022-12-13T20:53:57.768Z,90817.41
2022-12-13T20:56:27.282Z,90815.06
2022-12-13T20:58:57.061Z,90844.09
2022-12-13T21:01:26.721Z,90824.84
2022-12-13T21:03:58.486Z,90860.19
2022-12-13T21:06:26.228Z,90794.47
2022-12-13T21:08:54.772Z,90784.66
2022-12-13T21:11:27.598Z,90748.00
2022-12-13T21:14:09.932Z,90701.72
2022-12-13T21:16:47.337Z,90666.50
2022-12-13T21:19:21.558Z,90637.88
2022-12-13T21:21:50.461Z,90594.41
2022-12-13T21:24:22.268Z,90543.13
2022-12-13T21:26:51.187Z,90523.13
2022-12-13T21:29:21.384Z,90489.09
2022-12-13T21:31:50.904Z,90490.66
2022-12-13T21:34:19.771Z,90513.00
2022-12-13T21:36:49.419Z,90482.44
2022-12-13T21:39:19.574Z,90433.53
2022-12-13T21:41:47.980Z,90437.44
2022-12-13T21:44:20.300Z,90430.00
2022-12-13T21:49:37.895Z,90302.09
2022-12-13T21:52:06.280Z,90200.00
2022-12-13T21:54:34.181Z,90271.25
2022-12-13T21:57:20.744Z,90362.72
2022-12-13T21:59:49.370Z,90334.38
2022-12-13T22:02:22.437Z,90254.03
2022-12-13T22:04:51.889Z,90247.06
2022-12-13T22:07:21.465Z,90268.13
2022-12-13T22:09:50.189Z,90161.66
2022-12-13T22:12:21.660Z,90196.59
2022-12-13T22:14:50.388Z,90226.31
2022-12-13T22:17:24.888Z,90270.47
2022-12-13T22:19:55.273Z,90307.19
2022-12-13T22:22:25.628Z,90332.41
2022-12-13T22:24:54.167Z,90330.81
2022-12-13T22:27:23.836Z,90382.06
2022-12-13T22:29:52.455Z,90423.34
2022-12-13T22:32:22.490Z,90432.59
2022-12-13T22:34:50.555Z,90514.91
2022-12-13T22:37:18.417Z,90609.09
2022-12-13T22:39:46.343Z,90692.72
2022-12-13T22:42:14.571Z,90715.06
2022-12-13T22:44:43.622Z,90752.31
2022-12-13T22:47:11.461Z,90803.28
2022-12-13T22:49:41.047Z,90827.56
2022-12-13T22:52:09.274Z,90895.06
2022-12-13T22:54:37.192Z,90948.66
2022-12-13T22:57:05.379Z,90964.19
2022-12-13T22:59:34.991Z,90972.63
2022-12-13T23:02:03.906Z,91034.28
2022-12-13T23:04:32.839Z,91082.41
2022-12-13T23:07:02.316Z,91095.78
2022-12-13T23:09:30.482Z,91143.31
2022-12-13T23:12:15.840Z,91181.06
2022-12-13T23:14:44.550Z,91159.66
2022-12-13T23:17:12.475Z,91204.25
2022-12-13T23:19:50.865Z,91229.59
2022-12-13T23:22:23.018Z,91251.81
2022-12-13T23:24:52.682Z,91281.38
2022-12-13T23:27:25.716Z,91315.38
2022-12-13T23:29:54.592Z,91329.34
2022-12-13T23:32:22.499Z,91379.56
2022-12-13T23:34:50.293Z,91371.88
2022-12-13T23:37:19.737Z,91396.09
2022-12-13T23:39:48.957Z,91437.03
2022-12-13T23:42:16.795Z,91491.81
2022-12-13T23:44:45.063Z,91556.59
2022-12-13T23:47:14.402Z,91570.59
2022-12-13T23:49:42.542Z,91609.44
2022-12-13T23:52:10.451Z,91654.00
2022-12-13T23:54:38.591Z,91663.84
2022-12-13T23:57:07.727Z,91697.00
2022-12-13T23:59:35.935Z,91725.59
